LIPX Weather Reports


Display with metric or nautical units.
time (UTC)temp
F
wind
direction
speed
MPH
gust
MPH
rain 1hr
in
rain 24hr
in
rain mn
in
humidity
%
barometer
mb
20260507140005 72 270 1.0 0.0 0.00 0.00 0.00 43 1012.0
20260507133004 72 280 9.0 0.0 0.00 0.00 0.00 49 1012.0
20260507131504 70 290 9.0 0.0 0.00 0.00 0.00 49 1012.0
20260507124503 70 240 1.0 0.0 0.00 0.00 0.00 49 1012.0
20260507121504 72 230 8.0 0.0 0.00 0.00 0.00 49 1013.0
20260507120006 72 230 8.0 0.0 0.00 0.00 0.00 49 1013.0
20260507114504 70 0 5.0 0.0 0.00 0.00 0.00 52 1013.0
20260507113003 70 0 5.0 0.0 0.00 0.00 0.00 52 1013.0
20260507103005 68 220 5.0 0.0 0.00 0.00 0.00 60 1013.0
20260507101504 66 230 5.0 0.0 0.00 0.00 0.00 59 1013.0
20260507100005 66 230 5.0 0.0 0.00 0.00 0.00 59 1013.0
20260507093004 64 0 2.0 0.0 0.00 0.00 0.00 63 1013.0
20260507090005 63 230 3.0 0.0 0.00 0.00 0.00 72 1013.0
20260507084504 63 0 2.0 0.0 0.00 0.00 0.00 72 1013.0
20260507081504 61 150 3.0 0.0 0.00 0.00 0.00 72 1013.0
20260507074503 63 0 2.0 0.0 0.00 0.00 0.00 72 1012.0
20260507071504 59 0 2.0 0.0 0.00 0.00 0.00 76 1012.0
20260507070009 59 0 2.0 0.0 0.00 0.00 0.00 76 1012.0
20260507064504 57 50 3.0 0.0 0.00 0.00 0.00 87 1012.0
20260507063005 57 50 3.0 0.0 0.00 0.00 0.00 87 1012.0
20260507060004 54 0 2.0 0.0 0.00 0.00 0.00 100 1012.0
20260507051505 48 340 3.0 0.0 0.00 0.00 0.00 100 1011.0
20260507044504 48 350 2.0 0.0 0.00 0.00 0.00 100 1011.0
20260507041504 50 10 5.0 0.0 0.00 0.00 0.00 100 1011.0
20260507034504 50 360 2.0 0.0 0.00 0.00 0.00 100 1011.0
20260507033004 50 360 2.0 0.0 0.00 0.00 0.00 100 1011.0
20260507031504 50 0 2.0 0.0 0.00 0.00 0.00 100 1011.0
20260507030004 50 0 2.0 0.0 0.00 0.00 0.00 100 1011.0
20260507024504 52 350 5.0 0.0 0.00 0.00 0.00 100 1011.0
20260507023004 52 350 5.0 0.0 0.00 0.00 0.00 100 1011.0
20260507020004 52 350 3.0 0.0 0.00 0.00 0.00 100 1011.0
20260507013005 52 350 3.0 0.0 0.00 0.00 0.00 100 1011.0
20260507011504 52 350 3.0 0.0 0.00 0.00 0.00 100 1011.0
20260507010004 52 350 3.0 0.0 0.00 0.00 0.00 100 1011.0
20260507000004 52 0 2.0 0.0 0.00 0.00 0.00 100 1011.0
20260506234504 55 270 3.0 0.0 0.00 0.00 0.00 100 1011.0
20260506231504 55 220 3.0 0.0 0.00 0.00 0.00 100 1011.0
20260506223004 55 250 3.0 0.0 0.00 0.00 0.00 100 1011.0
20260506221505 57 0 2.0 0.0 0.00 0.00 0.00 100 1011.0
20260506220005 57 220 2.0 0.0 0.00 0.00 0.00 93 1011.0
20260506214504 57 220 2.0 0.0 0.00 0.00 0.00 93 1011.0
20260506213004 57 220 2.0 0.0 0.00 0.00 0.00 93 1011.0
20260506211504 59 140 3.0 0.0 0.00 0.00 0.00 93 1010.0
20260506204504 59 100 5.0 0.0 0.00 0.00 0.00 93 1010.0
20260506203004 59 100 5.0 0.0 0.00 0.00 0.00 93 1010.0
20260506201504 61 110 5.0 0.0 0.00 0.00 0.00 87 1009.0
20260506200005 61 110 5.0 0.0 0.00 0.00 0.00 87 1009.0
20260506193004 63 100 7.0 0.0 0.00 0.00 0.00 82 1009.0
20260506191504 64 90 9.0 0.0 0.00 0.00 0.00 77 1009.0
20260506184504 64 90 9.0 0.0 0.00 0.00 0.00 82 1008.0
20260506181505 64 80 9.0 0.0 0.00 0.00 0.00 82 1008.0
20260506180005 64 80 9.0 0.0 0.00 0.00 0.00 82 1008.0
20260506171504 66 90 1.0 0.0 0.00 0.00 0.00 72 1008.0
20260506164504 66 90 1.0 0.0 0.00 0.00 0.00 77 1008.0
20260506163005 66 90 1.0 0.0 0.00 0.00 0.00 77 1008.0
20260506160005 68 80 9.0 0.0 0.00 0.00 0.00 72 1008.0
20260506154504 66 80 7.0 0.0 0.00 0.00 0.00 77 1008.0
20260506153004 66 80 7.0 0.0 0.00 0.00 0.00 77 1008.0
20260506151503 66 0 7.0 0.0 0.00 0.00 0.00 77 1009.0
20260506150005 66 90 8.0 0.0 0.00 0.00 0.00 77 1008.0
20260506144504 66 110 6.0 0.0 0.00 0.00 0.00 77 1009.0
20260506143004 66 110 6.0 0.0 0.00 0.00 0.00 77 1009.0